sensor_id;sensor_type;location;lat;lon;timestamp;temperature;humidity
9881;DHT22;4979;51.014;6.678;2022-11-20T00:01:48;5.40;99.90
9881;DHT22;4979;51.014;6.678;2022-11-20T00:04:14;5.40;99.90
9881;DHT22;4979;51.014;6.678;2022-11-20T00:06:39;5.40;99.90
9881;DHT22;4979;51.014;6.678;2022-11-20T00:09:05;5.40;99.90
9881;DHT22;4979;51.014;6.678;2022-11-20T00:11:32;5.40;99.90
9881;DHT22;4979;51.014;6.678;2022-11-20T00:13:59;5.40;99.90
9881;DHT22;4979;51.014;6.678;2022-11-20T00:16:27;5.40;99.90
9881;DHT22;4979;51.014;6.678;2022-11-20T00:18:53;5.30;99.90
9881;DHT22;4979;51.014;6.678;2022-11-20T00:21:24;5.40;99.90
9881;DHT22;4979;51.014;6.678;2022-11-20T00:23:52;5.40;99.90
9881;DHT22;4979;51.014;6.678;2022-11-20T00:26:19;5.40;99.90
9881;DHT22;4979;51.014;6.678;2022-11-20T00:28:53;3.80;99.90
9881;DHT22;4979;51.014;6.678;2022-11-20T00:31:19;5.40;99.90
9881;DHT22;4979;51.014;6.678;2022-11-20T00:33:45;5.40;99.90
9881;DHT22;4979;51.014;6.678;2022-11-20T00:36:17;5.40;99.90
9881;DHT22;4979;51.014;6.678;2022-11-20T00:38:43;5.40;99.90
9881;DHT22;4979;51.014;6.678;2022-11-20T00:41:11;5.40;99.90
9881;DHT22;4979;51.014;6.678;2022-11-20T00:43:37;5.40;99.90
9881;DHT22;4979;51.014;6.678;2022-11-20T00:46:10;5.40;99.90
9881;DHT22;4979;51.014;6.678;2022-11-20T00:48:37;5.40;99.90
9881;DHT22;4979;51.014;6.678;2022-11-20T00:51:03;5.30;99.90
9881;DHT22;4979;51.014;6.678;2022-11-20T00:53:30;5.30;99.90
9881;DHT22;4979;51.014;6.678;2022-11-20T00:55:58;5.40;99.90
9881;DHT22;4979;51.014;6.678;2022-11-20T00:58:28;5.40;99.90
9881;DHT22;4979;51.014;6.678;2022-11-20T01:01:03;5.30;99.90
9881;DHT22;4979;51.014;6.678;2022-11-20T01:03:37;5.30;99.90
9881;DHT22;4979;51.014;6.678;2022-11-20T01:06:11;5.30;99.90
9881;DHT22;4979;51.014;6.678;2022-11-20T01:08:38;5.30;99.90
9881;DHT22;4979;51.014;6.678;2022-11-20T01:11:14;5.30;99.90
9881;DHT22;4979;51.014;6.678;2022-11-20T01:13:41;5.30;99.90
9881;DHT22;4979;51.014;6.678;2022-11-20T01:16:11;5.30;99.90
9881;DHT22;4979;51.014;6.678;2022-11-20T01:18:40;5.30;99.90
9881;DHT22;4979;51.014;6.678;2022-11-20T01:21:11;5.40;99.90
9881;DHT22;4979;51.014;6.678;2022-11-20T01:23:38;5.30;99.90
9881;DHT22;4979;51.014;6.678;2022-11-20T01:26:07;5.30;99.90
9881;DHT22;4979;51.014;6.678;2022-11-20T01:28:33;5.20;99.90
9881;DHT22;4979;51.014;6.678;2022-11-20T01:30:59;5.30;99.90
9881;DHT22;4979;51.014;6.678;2022-11-20T01:33:26;5.30;99.90
9881;DHT22;4979;51.014;6.678;2022-11-20T01:35:52;5.30;99.90
9881;DHT22;4979;51.014;6.678;2022-11-20T01:38:18;5.20;99.90
9881;DHT22;4979;51.014;6.678;2022-11-20T01:40:45;5.20;99.90
9881;DHT22;4979;51.014;6.678;2022-11-20T01:43:19;5.20;99.90
9881;DHT22;4979;51.014;6.678;2022-11-20T01:48:40;5.20;99.90
9881;DHT22;4979;51.014;6.678;2022-11-20T01:51:16;5.20;99.90
9881;DHT22;4979;51.014;6.678;2022-11-20T01:53:42;5.20;99.90
9881;DHT22;4979;51.014;6.678;2022-11-20T01:56:10;5.20;99.90
9881;DHT22;4979;51.014;6.678;2022-11-20T01:58:41;5.20;99.90
9881;DHT22;4979;51.014;6.678;2022-11-20T02:01:07;5.20;99.90
9881;DHT22;4979;51.014;6.678;2022-11-20T02:03:33;5.20;99.90
9881;DHT22;4979;51.014;6.678;2022-11-20T02:09:03;5.10;99.90
9881;DHT22;4979;51.014;6.678;2022-11-20T02:11:30;5.10;99.90
9881;DHT22;4979;51.014;6.678;2022-11-20T02:13:57;5.10;99.90
9881;DHT22;4979;51.014;6.678;2022-11-20T02:16:36;5.20;99.90
9881;DHT22;4979;51.014;6.678;2022-11-20T02:19:04;5.20;99.90
9881;DHT22;4979;51.014;6.678;2022-11-20T02:21:42;5.20;99.90
9881;DHT22;4979;51.014;6.678;2022-11-20T02:24:18;5.20;99.90
9881;DHT22;4979;51.014;6.678;2022-11-20T02:27:06;5.20;99.90
9881;DHT22;4979;51.014;6.678;2022-11-20T02:29:37;5.20;99.90
9881;DHT22;4979;51.014;6.678;2022-11-20T02:32:03;5.20;99.90
9881;DHT22;4979;51.014;6.678;2022-11-20T02:34:29;5.10;99.90
9881;DHT22;4979;51.014;6.678;2022-11-20T02:36:56;5.10;99.90
9881;DHT22;4979;51.014;6.678;2022-11-20T02:39:24;5.10;99.90
9881;DHT22;4979;51.014;6.678;2022-11-20T02:41:52;5.00;99.90
9881;DHT22;4979;51.014;6.678;2022-11-20T02:44:19;5.00;99.90
9881;DHT22;4979;51.014;6.678;2022-11-20T02:46:45;5.10;99.90
9881;DHT22;4979;51.014;6.678;2022-11-20T02:49:10;5.10;99.90
9881;DHT22;4979;51.014;6.678;2022-11-20T02:51:36;5.10;99.90
9881;DHT22;4979;51.014;6.678;2022-11-20T02:54:02;5.10;99.90
9881;DHT22;4979;51.014;6.678;2022-11-20T02:56:27;5.10;99.90
9881;DHT22;4979;51.014;6.678;2022-11-20T02:58:53;5.00;99.90
9881;DHT22;4979;51.014;6.678;2022-11-20T03:01:18;4.90;99.90
9881;DHT22;4979;51.014;6.678;2022-11-20T03:03:44;4.90;99.90
9881;DHT22;4979;51.014;6.678;2022-11-20T03:06:10;4.90;99.90
9881;DHT22;4979;51.014;6.678;2022-11-20T03:08:35;5.00;99.90
9881;DHT22;4979;51.014;6.678;2022-11-20T03:11:06;5.00;99.90
9881;DHT22;4979;51.014;6.678;2022-11-20T03:13:32;4.90;99.90
9881;DHT22;4979;51.014;6.678;2022-11-20T03:15:58;4.90;99.90
9881;DHT22;4979;51.014;6.678;2022-11-20T03:18:24;4.90;99.90
9881;DHT22;4979;51.014;6.678;2022-11-20T03:20:49;4.90;99.90
9881;DHT22;4979;51.014;6.678;2022-11-20T03:23:15;5.00;99.90
9881;DHT22;4979;51.014;6.678;2022-11-20T03:25:40;5.00;99.90
9881;DHT22;4979;51.014;6.678;2022-11-20T03:28:06;5.00;99.90
9881;DHT22;4979;51.014;6.678;2022-11-20T03:30:31;5.00;99.90
9881;DHT22;4979;51.014;6.678;2022-11-20T03:32:57;5.10;99.90
9881;DHT22;4979;51.014;6.678;2022-11-20T03:35:22;5.10;99.90
9881;DHT22;4979;51.014;6.678;2022-11-20T03:37:48;5.00;99.90
9881;DHT22;4979;51.014;6.678;2022-11-20T03:40:13;5.10;99.90
9881;DHT22;4979;51.014;6.678;2022-11-20T03:42:39;5.00;99.90
9881;DHT22;4979;51.014;6.678;2022-11-20T03:45:12;5.00;99.90
9881;DHT22;4979;51.014;6.678;2022-11-20T03:47:37;5.00;99.90
9881;DHT22;4979;51.014;6.678;2022-11-20T03:50:03;5.00;99.90
9881;DHT22;4979;51.014;6.678;2022-11-20T03:52:29;5.00;99.90
9881;DHT22;4979;51.014;6.678;2022-11-20T03:54:55;5.00;99.90
9881;DHT22;4979;51.014;6.678;2022-11-20T03:57:20;5.00;99.90
9881;DHT22;4979;51.014;6.678;2022-11-20T03:59:46;5.00;99.90
9881;DHT22;4979;51.014;6.678;2022-11-20T04:02:11;5.10;99.90
9881;DHT22;4979;51.014;6.678;2022-11-20T04:04:37;5.00;99.90
9881;DHT22;4979;51.014;6.678;2022-11-20T04:07:03;5.00;99.90
9881;DHT22;4979;51.014;6.678;2022-11-20T04:09:28;5.00;99.90
9881;DHT22;4979;51.014;6.678;2022-11-20T04:11:54;5.10;99.90
9881;DHT22;4979;51.014;6.678;2022-11-20T04:14:19;5.10;99.90
9881;DHT22;4979;51.014;6.678;2022-11-20T04:16:45;5.10;99.90
9881;DHT22;4979;51.014;6.678;2022-11-20T04:19:14;5.20;99.90
9881;DHT22;4979;51.014;6.678;2022-11-20T04:21:40;5.20;99.90
9881;DHT22;4979;51.014;6.678;2022-11-20T04:24:06;5.10;99.90
9881;DHT22;4979;51.014;6.678;2022-11-20T04:26:32;5.10;99.90
9881;DHT22;4979;51.014;6.678;2022-11-20T04:28:58;5.10;99.90
9881;DHT22;4979;51.014;6.678;2022-11-20T04:31:26;5.10;99.90
9881;DHT22;4979;51.014;6.678;2022-11-20T04:33:53;5.10;99.90
9881;DHT22;4979;51.014;6.678;2022-11-20T04:36:26;5.20;99.90
9881;DHT22;4979;51.014;6.678;2022-11-20T04:38:53;5.20;99.90
9881;DHT22;4979;51.014;6.678;2022-11-20T04:41:22;5.10;99.90
9881;DHT22;4979;51.014;6.678;2022-11-20T04:43:52;5.00;99.90
9881;DHT22;4979;51.014;6.678;2022-11-20T04:46:19;5.00;99.90
9881;DHT22;4979;51.014;6.678;2022-11-20T04:48:45;5.10;99.90
9881;DHT22;4979;51.014;6.678;2022-11-20T04:51:11;5.10;99.90
9881;DHT22;4979;51.014;6.678;2022-11-20T04:53:37;5.10;99.90
9881;DHT22;4979;51.014;6.678;2022-11-20T04:56:06;5.20;99.90
9881;DHT22;4979;51.014;6.678;2022-11-20T04:58:32;5.20;99.90
9881;DHT22;4979;51.014;6.678;2022-11-20T05:01:02;5.20;99.90
9881;DHT22;4979;51.014;6.678;2022-11-20T05:03:28;5.20;99.90
9881;DHT22;4979;51.014;6.678;2022-11-20T05:05:54;5.30;99.90
9881;DHT22;4979;51.014;6.678;2022-11-20T05:08:19;5.30;99.90
9881;DHT22;4979;51.014;6.678;2022-11-20T05:10:45;5.20;99.90
9881;DHT22;4979;51.014;6.678;2022-11-20T05:13:11;5.20;99.90
9881;DHT22;4979;51.014;6.678;2022-11-20T05:15:36;5.20;99.90
9881;DHT22;4979;51.014;6.678;2022-11-20T05:18:02;5.20;99.90
9881;DHT22;4979;51.014;6.678;2022-11-20T05:20:27;5.20;99.90
9881;DHT22;4979;51.014;6.678;2022-11-20T05:22:56;5.20;99.90
9881;DHT22;4979;51.014;6.678;2022-11-20T05:25:22;5.20;99.90
9881;DHT22;4979;51.014;6.678;2022-11-20T05:27:48;5.30;99.90
9881;DHT22;4979;51.014;6.678;2022-11-20T05:30:13;5.20;99.90
9881;DHT22;4979;51.014;6.678;2022-11-20T05:32:39;5.30;99.90
9881;DHT22;4979;51.014;6.678;2022-11-20T05:35:05;5.30;99.90
9881;DHT22;4979;51.014;6.678;2022-11-20T05:37:31;5.40;99.90
9881;DHT22;4979;51.014;6.678;2022-11-20T05:39:56;5.30;99.90
9881;DHT22;4979;51.014;6.678;2022-11-20T05:42:22;5.40;99.90
9881;DHT22;4979;51.014;6.678;2022-11-20T05:45:00;5.40;99.90
9881;DHT22;4979;51.014;6.678;2022-11-20T05:47:27;5.40;99.90
9881;DHT22;4979;51.014;6.678;2022-11-20T05:49:53;5.40;99.90
9881;DHT22;4979;51.014;6.678;2022-11-20T05:52:18;5.40;99.90
9881;DHT22;4979;51.014;6.678;2022-11-20T05:54:44;5.40;99.90
9881;DHT22;4979;51.014;6.678;2022-11-20T05:57:09;5.40;99.90
9881;DHT22;4979;51.014;6.678;2022-11-20T05:59:35;5.30;99.90
9881;DHT22;4979;51.014;6.678;2022-11-20T06:02:01;5.20;99.90
9881;DHT22;4979;51.014;6.678;2022-11-20T06:04:26;5.20;99.90
9881;DHT22;4979;51.014;6.678;2022-11-20T06:06:52;5.20;99.90
9881;DHT22;4979;51.014;6.678;2022-11-20T06:09:17;5.20;99.90
9881;DHT22;4979;51.014;6.678;2022-11-20T06:11:43;5.30;99.90
9881;DHT22;4979;51.014;6.678;2022-11-20T06:14:08;5.20;99.90
9881;DHT22;4979;51.014;6.678;2022-11-20T06:16:34;5.30;99.90
9881;DHT22;4979;51.014;6.678;2022-11-20T06:18:59;5.30;99.90
9881;DHT22;4979;51.014;6.678;2022-11-20T06:21:25;5.20;99.90
9881;DHT22;4979;51.014;6.678;2022-11-20T06:23:52;5.20;99.90
9881;DHT22;4979;51.014;6.678;2022-11-20T06:26:20;5.20;99.90
9881;DHT22;4979;51.014;6.678;2022-11-20T06:28:46;5.20;99.90
9881;DHT22;4979;51.014;6.678;2022-11-20T06:31:13;5.20;99.90
9881;DHT22;4979;51.014;6.678;2022-11-20T06:33:40;5.20;99.90
9881;DHT22;4979;51.014;6.678;2022-11-20T06:36:06;5.20;99.90
9881;DHT22;4979;51.014;6.678;2022-11-20T06:38:31;5.20;99.90
9881;DHT22;4979;51.014;6.678;2022-11-20T06:40:57;5.10;99.90
9881;DHT22;4979;51.014;6.678;2022-11-20T06:43:23;5.10;99.90
9881;DHT22;4979;51.014;6.678;2022-11-20T06:45:56;5.10;99.90
9881;DHT22;4979;51.014;6.678;2022-11-20T06:48:23;5.10;99.90
9881;DHT22;4979;51.014;6.678;2022-11-20T06:50:49;5.10;99.90
9881;DHT22;4979;51.014;6.678;2022-11-20T06:53:14;5.10;99.90
9881;DHT22;4979;51.014;6.678;2022-11-20T06:55:47;5.20;99.90
9881;DHT22;4979;51.014;6.678;2022-11-20T06:58:14;5.20;99.90
9881;DHT22;4979;51.014;6.678;2022-11-20T07:00:40;5.20;99.90
9881;DHT22;4979;51.014;6.678;2022-11-20T07:03:07;5.20;99.90
9881;DHT22;4979;51.014;6.678;2022-11-20T07:05:34;5.20;99.90
9881;DHT22;4979;51.014;6.678;2022-11-20T07:08:00;5.20;99.90
9881;DHT22;4979;51.014;6.678;2022-11-20T07:10:25;5.20;99.90
9881;DHT22;4979;51.014;6.678;2022-11-20T07:12:52;5.20;99.90
9881;DHT22;4979;51.014;6.678;2022-11-20T07:15:19;5.20;99.90
9881;DHT22;4979;51.014;6.678;2022-11-20T07:17:45;5.20;99.90
9881;DHT22;4979;51.014;6.678;2022-11-20T07:20:11;5.10;99.90
9881;DHT22;4979;51.014;6.678;2022-11-20T07:22:37;5.10;99.90
9881;DHT22;4979;51.014;6.678;2022-11-20T07:25:03;5.10;99.90
9881;DHT22;4979;51.014;6.678;2022-11-20T07:27:29;5.10;99.90
9881;DHT22;4979;51.014;6.678;2022-11-20T07:29:55;5.10;99.90
9881;DHT22;4979;51.014;6.678;2022-11-20T07:32:21;5.10;99.90
9881;DHT22;4979;51.014;6.678;2022-11-20T07:34:46;5.10;99.90
9881;DHT22;4979;51.014;6.678;2022-11-20T07:37:12;5.10;99.90
9881;DHT22;4979;51.014;6.678;2022-11-20T07:39:38;5.10;99.90
9881;DHT22;4979;51.014;6.678;2022-11-20T07:42:03;5.20;99.90
9881;DHT22;4979;51.014;6.678;2022-11-20T07:44:29;5.10;99.90
9881;DHT22;4979;51.014;6.678;2022-11-20T07:46:54;5.10;99.90
9881;DHT22;4979;51.014;6.678;2022-11-20T07:49:20;5.20;99.90
9881;DHT22;4979;51.014;6.678;2022-11-20T07:51:45;5.20;99.90
9881;DHT22;4979;51.014;6.678;2022-11-20T07:54:11;5.20;99.90
9881;DHT22;4979;51.014;6.678;2022-11-20T07:56:36;5.20;99.90
9881;DHT22;4979;51.014;6.678;2022-11-20T07:59:03;5.20;99.90
9881;DHT22;4979;51.014;6.678;2022-11-20T08:01:28;5.20;99.90
9881;DHT22;4979;51.014;6.678;2022-11-20T08:03:54;5.20;99.90
9881;DHT22;4979;51.014;6.678;2022-11-20T08:06:20;5.20;99.90
9881;DHT22;4979;51.014;6.678;2022-11-20T08:08:45;5.30;99.90
9881;DHT22;4979;51.014;6.678;2022-11-20T08:11:11;5.30;99.90
9881;DHT22;4979;51.014;6.678;2022-11-20T08:13:55;5.20;99.90
9881;DHT22;4979;51.014;6.678;2022-11-20T08:16:49;5.20;99.90
9881;DHT22;4979;51.014;6.678;2022-11-20T08:19:16;5.30;99.90
9881;DHT22;4979;51.014;6.678;2022-11-20T08:21:43;5.30;99.90
9881;DHT22;4979;51.014;6.678;2022-11-20T08:24:09;5.20;99.90
9881;DHT22;4979;51.014;6.678;2022-11-20T08:26:36;5.30;99.90
9881;DHT22;4979;51.014;6.678;2022-11-20T08:29:03;5.10;99.90
9881;DHT22;4979;51.014;6.678;2022-11-20T08:31:29;5.20;99.90
9881;DHT22;4979;51.014;6.678;2022-11-20T08:33:55;5.40;99.90
9881;DHT22;4979;51.014;6.678;2022-11-20T08:36:21;5.40;99.90
9881;DHT22;4979;51.014;6.678;2022-11-20T08:38:52;5.30;99.90
9881;DHT22;4979;51.014;6.678;2022-11-20T08:41:17;5.40;99.90
9881;DHT22;4979;51.014;6.678;2022-11-20T08:43:50;5.50;99.90
9881;DHT22;4979;51.014;6.678;2022-11-20T08:46:16;5.40;99.90
9881;DHT22;4979;51.014;6.678;2022-11-20T08:48:42;5.50;99.90
9881;DHT22;4979;51.014;6.678;2022-11-20T08:51:09;5.50;99.90
9881;DHT22;4979;51.014;6.678;2022-11-20T08:53:34;5.60;99.90
9881;DHT22;4979;51.014;6.678;2022-11-20T08:56:00;5.70;99.90
9881;DHT22;4979;51.014;6.678;2022-11-20T08:58:26;5.60;99.90
9881;DHT22;4979;51.014;6.678;2022-11-20T09:00:52;5.60;99.90
9881;DHT22;4979;51.014;6.678;2022-11-20T09:03:18;5.60;99.90
9881;DHT22;4979;51.014;6.678;2022-11-20T09:05:43;5.70;99.90
9881;DHT22;4979;51.014;6.678;2022-11-20T09:08:09;5.80;99.90
9881;DHT22;4979;51.014;6.678;2022-11-20T09:10:34;5.90;99.90
9881;DHT22;4979;51.014;6.678;2022-11-20T09:13:01;5.90;99.90
9881;DHT22;4979;51.014;6.678;2022-11-20T09:15:27;6.10;99.90
9881;DHT22;4979;51.014;6.678;2022-11-20T09:17:58;6.00;99.90
9881;DHT22;4979;51.014;6.678;2022-11-20T09:20:25;6.00;99.90
9881;DHT22;4979;51.014;6.678;2022-11-20T09:22:51;6.00;99.90
9881;DHT22;4979;51.014;6.678;2022-11-20T09:25:17;6.20;99.90
9881;DHT22;4979;51.014;6.678;2022-11-20T09:27:42;6.20;99.90
9881;DHT22;4979;51.014;6.678;2022-11-20T09:30:10;6.10;99.90
9881;DHT22;4979;51.014;6.678;2022-11-20T09:32:35;6.10;99.90
9881;DHT22;4979;51.014;6.678;2022-11-20T09:35:01;6.10;99.90
9881;DHT22;4979;51.014;6.678;2022-11-20T09:37:27;5.90;99.90
9881;DHT22;4979;51.014;6.678;2022-11-20T09:39:52;5.90;99.90
9881;DHT22;4979;51.014;6.678;2022-11-20T09:42:41;6.00;99.90
9881;DHT22;4979;51.014;6.678;2022-11-20T09:48:26;6.00;99.90
9881;DHT22;4979;51.014;6.678;2022-11-20T09:51:21;6.10;99.90
9881;DHT22;4979;51.014;6.678;2022-11-20T09:54:13;6.10;99.90
9881;DHT22;4979;51.014;6.678;2022-11-20T09:56:44;6.30;99.90
9881;DHT22;4979;51.014;6.678;2022-11-20T09:59:30;6.10;99.90
9881;DHT22;4979;51.014;6.678;2022-11-20T10:01:59;6.20;99.90
9881;DHT22;4979;51.014;6.678;2022-11-20T10:04:25;6.30;99.90
9881;DHT22;4979;51.014;6.678;2022-11-20T10:09:36;6.20;99.90
9881;DHT22;4979;51.014;6.678;2022-11-20T10:12:13;6.20;99.90
9881;DHT22;4979;51.014;6.678;2022-11-20T10:17:42;6.40;99.90
9881;DHT22;4979;51.014;6.678;2022-11-20T10:20:26;6.60;99.90
9881;DHT22;4979;51.014;6.678;2022-11-20T10:26:33;6.60;99.90
9881;DHT22;4979;51.014;6.678;2022-11-20T10:31:37;6.70;99.90
9881;DHT22;4979;51.014;6.678;2022-11-20T10:34:14;6.70;99.90
9881;DHT22;4979;51.014;6.678;2022-11-20T10:36:49;6.70;99.90
9881;DHT22;4979;51.014;6.678;2022-11-20T10:39:22;9.40;99.90
9881;DHT22;4979;51.014;6.678;2022-11-20T10:41:52;6.80;99.90
9881;DHT22;4979;51.014;6.678;2022-11-20T10:44:26;6.80;99.90
9881;DHT22;4979;51.014;6.678;2022-11-20T10:47:20;6.70;99.90
9881;DHT22;4979;51.014;6.678;2022-11-20T10:49:53;6.70;99.90
9881;DHT22;4979;51.014;6.678;2022-11-20T10:52:29;6.80;99.90
9881;DHT22;4979;51.014;6.678;2022-11-20T11:00:52;6.50;99.90
9881;DHT22;4979;51.014;6.678;2022-11-20T11:03:24;6.50;99.90
9881;DHT22;4979;51.014;6.678;2022-11-20T11:05:56;6.50;99.90
9881;DHT22;4979;51.014;6.678;2022-11-20T11:08:28;6.50;99.90
9881;DHT22;4979;51.014;6.678;2022-11-20T11:10:59;6.50;99.90
9881;DHT22;4979;51.014;6.678;2022-11-20T11:13:30;6.50;99.90
9881;DHT22;4979;51.014;6.678;2022-11-20T11:15:56;6.50;99.90
9881;DHT22;4979;51.014;6.678;2022-11-20T11:18:33;6.40;99.90
9881;DHT22;4979;51.014;6.678;2022-11-20T11:21:01;6.50;99.90
9881;DHT22;4979;51.014;6.678;2022-11-20T11:23:35;6.60;99.90
9881;DHT22;4979;51.014;6.678;2022-11-20T11:26:05;6.60;99.90
9881;DHT22;4979;51.014;6.678;2022-11-20T11:28:32;6.60;99.90
9881;DHT22;4979;51.014;6.678;2022-11-20T11:30:58;6.60;99.90
9881;DHT22;4979;51.014;6.678;2022-11-20T11:33:25;6.60;99.90
9881;DHT22;4979;51.014;6.678;2022-11-20T11:36:02;6.70;99.90
9881;DHT22;4979;51.014;6.678;2022-11-20T11:38:35;6.60;99.90
9881;DHT22;4979;51.014;6.678;2022-11-20T11:41:02;6.70;99.90
9881;DHT22;4979;51.014;6.678;2022-11-20T11:43:31;6.60;99.90
9881;DHT22;4979;51.014;6.678;2022-11-20T11:46:35;6.60;99.90
9881;DHT22;4979;51.014;6.678;2022-11-20T11:49:16;6.50;99.90
9881;DHT22;4979;51.014;6.678;2022-11-20T11:51:47;6.40;99.90
9881;DHT22;4979;51.014;6.678;2022-11-20T11:54:21;6.40;99.90
9881;DHT22;4979;51.014;6.678;2022-11-20T11:56:49;6.30;99.90
9881;DHT22;4979;51.014;6.678;2022-11-20T11:59:25;6.40;99.90
9881;DHT22;4979;51.014;6.678;2022-11-20T12:01:57;6.40;99.90
9881;DHT22;4979;51.014;6.678;2022-11-20T12:07:03;6.60;99.90
9881;DHT22;4979;51.014;6.678;2022-11-20T12:09:41;6.50;99.90
9881;DHT22;4979;51.014;6.678;2022-11-20T12:12:16;6.50;99.90
9881;DHT22;4979;51.014;6.678;2022-11-20T12:14:46;6.40;99.90
9881;DHT22;4979;51.014;6.678;2022-11-20T12:17:13;6.60;99.90
9881;DHT22;4979;51.014;6.678;2022-11-20T12:19:39;6.60;99.90
9881;DHT22;4979;51.014;6.678;2022-11-20T12:22:27;6.60;99.90
9881;DHT22;4979;51.014;6.678;2022-11-20T12:24:58;6.60;99.90
9881;DHT22;4979;51.014;6.678;2022-11-20T12:30:02;6.50;99.90
9881;DHT22;4979;51.014;6.678;2022-11-20T12:32:50;6.50;99.90
9881;DHT22;4979;51.014;6.678;2022-11-20T12:38:50;6.70;99.90
9881;DHT22;4979;51.014;6.678;2022-11-20T12:41:22;6.70;99.90
9881;DHT22;4979;51.014;6.678;2022-11-20T12:44:47;6.60;99.90
9881;DHT22;4979;51.014;6.678;2022-11-20T12:47:50;6.70;99.90
9881;DHT22;4979;51.014;6.678;2022-11-20T12:56:35;6.80;99.90
9881;DHT22;4979;51.014;6.678;2022-11-20T12:59:12;6.90;99.90
9881;DHT22;4979;51.014;6.678;2022-11-20T13:01:42;7.00;99.90
9881;DHT22;4979;51.014;6.678;2022-11-20T13:07:16;6.90;99.90
9881;DHT22;4979;51.014;6.678;2022-11-20T13:09:45;7.00;99.90
9881;DHT22;4979;51.014;6.678;2022-11-20T13:12:37;7.10;99.90
9881;DHT22;4979;51.014;6.678;2022-11-20T13:15:33;7.10;99.90
9881;DHT22;4979;51.014;6.678;2022-11-20T13:18:03;7.20;99.90
9881;DHT22;4979;51.014;6.678;2022-11-20T13:20:31;7.20;99.90
9881;DHT22;4979;51.014;6.678;2022-11-20T13:22:58;7.20;99.90
9881;DHT22;4979;51.014;6.678;2022-11-20T13:25:34;7.20;99.90
9881;DHT22;4979;51.014;6.678;2022-11-20T13:30:35;7.20;99.90
9881;DHT22;4979;51.014;6.678;2022-11-20T13:33:22;7.10;99.90
9881;DHT22;4979;51.014;6.678;2022-11-20T13:35:57;7.20;99.90
9881;DHT22;4979;51.014;6.678;2022-11-20T13:38:23;7.10;99.90
9881;DHT22;4979;51.014;6.678;2022-11-20T13:40:57;7.10;99.90
9881;DHT22;4979;51.014;6.678;2022-11-20T13:43:37;7.10;99.90
9881;DHT22;4979;51.014;6.678;2022-11-20T13:46:08;7.00;99.90
9881;DHT22;4979;51.014;6.678;2022-11-20T13:48:44;7.00;99.90
9881;DHT22;4979;51.014;6.678;2022-11-20T13:51:40;6.90;99.90
9881;DHT22;4979;51.014;6.678;2022-11-20T14:00:17;6.80;99.90
9881;DHT22;4979;51.014;6.678;2022-11-20T14:02:44;6.80;99.90
9881;DHT22;4979;51.014;6.678;2022-11-20T14:05:22;6.80;99.90
9881;DHT22;4979;51.014;6.678;2022-11-20T14:07:49;6.90;99.90
9881;DHT22;4979;51.014;6.678;2022-11-20T14:10:27;6.90;99.90
9881;DHT22;4979;51.014;6.678;2022-11-20T14:12:54;6.90;99.90
9881;DHT22;4979;51.014;6.678;2022-11-20T14:15:31;6.80;99.90
9881;DHT22;4979;51.014;6.678;2022-11-20T14:17:58;6.80;99.90
9881;DHT22;4979;51.014;6.678;2022-11-20T14:20:26;6.80;99.90
9881;DHT22;4979;51.014;6.678;2022-11-20T14:22:54;6.80;99.90
9881;DHT22;4979;51.014;6.678;2022-11-20T14:25:24;6.80;99.90
9881;DHT22;4979;51.014;6.678;2022-11-20T14:27:59;6.70;99.90
9881;DHT22;4979;51.014;6.678;2022-11-20T14:30:28;6.60;99.90
9881;DHT22;4979;51.014;6.678;2022-11-20T14:33:00;6.70;99.90
9881;DHT22;4979;51.014;6.678;2022-11-20T14:35:28;6.70;99.90
9881;DHT22;4979;51.014;6.678;2022-11-20T14:37:55;6.70;99.90
9881;DHT22;4979;51.014;6.678;2022-11-20T14:42:47;6.70;99.90
9881;DHT22;4979;51.014;6.678;2022-11-20T14:45:13;6.70;99.90
9881;DHT22;4979;51.014;6.678;2022-11-20T14:47:40;6.70;99.90
9881;DHT22;4979;51.014;6.678;2022-11-20T14:50:13;6.60;99.90
9881;DHT22;4979;51.014;6.678;2022-11-20T14:52:52;6.60;99.90
9881;DHT22;4979;51.014;6.678;2022-11-20T14:55:33;6.60;99.90
9881;DHT22;4979;51.014;6.678;2022-11-20T14:58:19;6.70;99.90
9881;DHT22;4979;51.014;6.678;2022-11-20T15:01:03;6.70;99.90
9881;DHT22;4979;51.014;6.678;2022-11-20T15:03:37;6.70;99.90
9881;DHT22;4979;51.014;6.678;2022-11-20T15:06:05;6.70;99.90
9881;DHT22;4979;51.014;6.678;2022-11-20T15:08:31;6.70;99.90
9881;DHT22;4979;51.014;6.678;2022-11-20T15:10:57;6.70;99.90
9881;DHT22;4979;51.014;6.678;2022-11-20T15:15:57;6.70;99.90
9881;DHT22;4979;51.014;6.678;2022-11-20T15:18:28;6.60;99.90
9881;DHT22;4979;51.014;6.678;2022-11-20T15:20:56;6.60;99.90
9881;DHT22;4979;51.014;6.678;2022-11-20T15:23:22;6.60;99.90
9881;DHT22;4979;51.014;6.678;2022-11-20T15:25:48;6.60;99.90
9881;DHT22;4979;51.014;6.678;2022-11-20T15:28:30;6.70;99.90
9881;DHT22;4979;51.014;6.678;2022-11-20T15:30:56;6.70;99.90
9881;DHT22;4979;51.014;6.678;2022-11-20T15:33:22;6.70;99.90
9881;DHT22;4979;51.014;6.678;2022-11-20T15:35:48;6.70;99.90
9881;DHT22;4979;51.014;6.678;2022-11-20T15:38:13;6.80;99.90
9881;DHT22;4979;51.014;6.678;2022-11-20T15:40:39;6.70;99.90
9881;DHT22;4979;51.014;6.678;2022-11-20T15:43:05;6.80;99.90
9881;DHT22;4979;51.014;6.678;2022-11-20T15:45:44;6.90;99.90
9881;DHT22;4979;51.014;6.678;2022-11-20T15:48:16;6.80;99.90
9881;DHT22;4979;51.014;6.678;2022-11-20T15:53:37;6.80;99.90
9881;DHT22;4979;51.014;6.678;2022-11-20T15:56:02;6.90;99.90
9881;DHT22;4979;51.014;6.678;2022-11-20T15:58:28;6.90;99.90
9881;DHT22;4979;51.014;6.678;2022-11-20T16:00:54;6.90;99.90
9881;DHT22;4979;51.014;6.678;2022-11-20T16:03:20;6.80;99.90
9881;DHT22;4979;51.014;6.678;2022-11-20T16:05:46;6.80;99.90
9881;DHT22;4979;51.014;6.678;2022-11-20T16:08:12;6.80;99.90
9881;DHT22;4979;51.014;6.678;2022-11-20T16:10:38;6.80;99.90
9881;DHT22;4979;51.014;6.678;2022-11-20T16:13:10;6.70;99.90
9881;DHT22;4979;51.014;6.678;2022-11-20T16:15:57;6.70;99.90
9881;DHT22;4979;51.014;6.678;2022-11-20T16:18:24;6.70;99.90
9881;DHT22;4979;51.014;6.678;2022-11-20T16:20:51;6.80;99.90
9881;DHT22;4979;51.014;6.678;2022-11-20T16:23:18;6.80;99.90
9881;DHT22;4979;51.014;6.678;2022-11-20T16:25:44;6.80;99.90
9881;DHT22;4979;51.014;6.678;2022-11-20T16:28:10;6.80;99.90
9881;DHT22;4979;51.014;6.678;2022-11-20T16:30:37;6.80;99.90
9881;DHT22;4979;51.014;6.678;2022-11-20T16:33:03;6.80;99.90
9881;DHT22;4979;51.014;6.678;2022-11-20T16:35:32;6.80;99.90
9881;DHT22;4979;51.014;6.678;2022-11-20T16:37:58;6.80;99.90
9881;DHT22;4979;51.014;6.678;2022-11-20T16:40:24;6.80;99.90
9881;DHT22;4979;51.014;6.678;2022-11-20T16:42:51;6.80;99.90
9881;DHT22;4979;51.014;6.678;2022-11-20T16:45:17;6.80;99.90
9881;DHT22;4979;51.014;6.678;2022-11-20T16:47:42;6.80;99.90
9881;DHT22;4979;51.014;6.678;2022-11-20T16:50:08;6.80;99.90
9881;DHT22;4979;51.014;6.678;2022-11-20T16:52:34;6.70;99.90
9881;DHT22;4979;51.014;6.678;2022-11-20T16:55:00;6.80;99.90
9881;DHT22;4979;51.014;6.678;2022-11-20T16:57:29;6.70;99.90
9881;DHT22;4979;51.014;6.678;2022-11-20T16:59:55;6.70;99.90
9881;DHT22;4979;51.014;6.678;2022-11-20T17:02:21;6.80;99.90
9881;DHT22;4979;51.014;6.678;2022-11-20T17:04:47;6.80;99.90
9881;DHT22;4979;51.014;6.678;2022-11-20T17:07:12;6.70;99.90
9881;DHT22;4979;51.014;6.678;2022-11-20T17:09:38;6.80;99.90
9881;DHT22;4979;51.014;6.678;2022-11-20T17:12:04;6.80;99.90
9881;DHT22;4979;51.014;6.678;2022-11-20T17:14:30;6.70;99.90
9881;DHT22;4979;51.014;6.678;2022-11-20T17:16:57;6.80;99.90
9881;DHT22;4979;51.014;6.678;2022-11-20T17:19:22;6.80;99.90
9881;DHT22;4979;51.014;6.678;2022-11-20T17:21:48;6.80;99.90
9881;DHT22;4979;51.014;6.678;2022-11-20T17:24:14;6.80;99.90
9881;DHT22;4979;51.014;6.678;2022-11-20T17:26:43;6.90;99.90
9881;DHT22;4979;51.014;6.678;2022-11-20T17:29:14;6.80;99.90
9881;DHT22;4979;51.014;6.678;2022-11-20T17:31:41;6.80;99.90